Marley — ONHT — position and weather

sailwx.info

Track history (hours):
 
Tides and Currents Weather Stations Pressure Air Temp Water Temp Dewpoint Dewpoint Depression Visibility Wind Speed Wind Dir Waves Ship Positions

Marley

Last reported at 2018-Jan-21 03:00 UTC. Time now 2018-Jan-21 03:06 UTC.
Position N 43°43' W 005°43'.

Length 91 m; draft 3.2 m.

Type: Cargo ship. MMSI: 205656000.

Date/timePositionNaut miles runAvg speedWind from/ knotsBaromVisibWave heightAir tempDewpointWater temp
2018-Jan-21 03:00N 43°43' W 005°43'1 1.0
2018-Jan-21 02:30N 43°43' W 005°43'1 1.1
2018-Jan-21 02:00N 43°43' W 005°44'1 1.3
2018-Jan-21 01:29N 43°43' W 005°45'1 1.3
2018-Jan-21 01:00N 43°44' W 005°46'1 1.3
2018-Jan-21 00:30N 43°44' W 005°47'6 1.2
2018-Jan-20 19:50N 43°45' W 005°54'1 1.5
2018-Jan-20 19:30N 43°45' W 005°55'1 1.4
2018-Jan-20 18:49N 43°45' W 005°56'2 0.5
2018-Jan-20 15:35N 43°44' W 005°58'1 4.0
2018-Jan-20 15:27N 43°44' W 005°57'2 4.7
2018-Jan-20 15:00N 43°45' W 005°54'2 4.5
2018-Jan-20 14:27N 43°45' W 005°51'2 4.5
2018-Jan-20 14:00N 43°45' W 005°48'2 4.1
2018-Jan-20 13:27N 43°45' W 005°45'2 3.6
2018-Jan-20 13:00N 43°45' W 005°43'1 1.5
2018-Jan-20 12:15N 43°45' W 005°45'0 1.4
2018-Jan-20 12:00N 43°45' W 005°45'1 1.4
2018-Jan-20 11:27N 43°45' W 005°46'1 1.4
2018-Jan-20 10:47N 43°45' W 005°47'0 1.3
2018-Jan-20 10:28N 43°45' W 005°48'1 1.3
2018-Jan-20 09:59N 43°45' W 005°49'1 1.4
2018-Jan-20 09:29N 43°45' W 005°50'1 1.3
2018-Jan-20 08:58N 43°46' W 005°51'1 1.3
2018-Jan-20 08:29N 43°46' W 005°51'0 0.9
2018-Jan-20 07:57N 43°45' W 005°52'2 3.7
2018-Jan-20 07:28N 43°44' W 005°51'1 1.5
2018-Jan-20 06:57N 43°44' W 005°52'1 1.5
2018-Jan-20 06:30N 43°44' W 005°53'1 1.7
2018-Jan-20 05:59N 43°44' W 005°54'1 1.6
2018-Jan-20 05:30N 43°44' W 005°55'1 1.4
2018-Jan-20 04:57N 43°44' W 005°56'1 1.3
2018-Jan-20 04:29N 43°45' W 005°57'1 0.9
2018-Jan-20 03:49N 43°45' W 005°58'2 5.5
2018-Jan-20 03:26N 43°44' W 005°55'3 5.7
2018-Jan-20 03:00N 43°43' W 005°52'0 0.3
2018-Jan-20 02:22N 43°44' W 005°52'5 0.9
2018-Jan-19 21:18N 43°43' W 005°59'1 2.5
2018-Jan-19 20:57N 43°42' W 005°59'0 0.2
2018-Jan-19 20:07N 43°42' W 005°59'1 2.5
2018-Jan-19 19:51N 43°42' W 005°58'1 1.0
2018-Jan-19 18:48N 43°43' W 005°58'2 7.6
2018-Jan-19 18:28N 43°43' W 005°55'4 7.9
2018-Jan-19 17:58N 43°44' W 005°50'6 8.0
2018-Jan-19 17:12N 43°45' W 005°41'2 7.7
2018-Jan-19 16:59N 43°45' W 005°39'5 7.7
2018-Jan-19 16:20N 43°44' W 005°32'22 7.5
2018-Jan-19 13:28N 43°42' W 005°02'58 7.6
2018-Jan-19 05:48N 43°35' W 003°42'4 7.6
2018-Jan-19 05:18N 43°35' W 003°37'2 7.7
2018-Jan-19 05:00N 43°35' W 003°34'4 7.7
2018-Jan-19 04:31N 43°35' W 003°29'4 7.6
2018-Jan-19 04:00N 43°35' W 003°23'3 7.2
2018-Jan-19 03:31N 43°35' W 003°18'4 7.3
2018-Jan-19 02:57N 43°34' W 003°13'4 7.3
2018-Jan-19 02:25N 43°34' W 003°07'3 7.3
2018-Jan-19 02:01N 43°34' W 003°03'4 7.6
2018-Jan-19 01:31N 43°34' W 002°58'4 7.6
2018-Jan-19 01:00N 43°34' W 002°53'4 7.2
2018-Jan-19 00:30N 43°34' W 002°48'4 7.2
2018-Jan-19 00:01N 43°34' W 002°43'4 7.1
2018-Jan-18 23:31N 43°33' W 002°38'3 7.0
2018-Jan-18 23:01N 43°33' W 002°33'4 7.3
2018-Jan-18 22:31N 43°33' W 002°28'4 7.4
2018-Jan-18 22:01N 43°33' W 002°23'4 7.1
2018-Jan-18 21:30N 43°33' W 002°18'3 7.1
2018-Jan-18 21:01N 43°33' W 002°13'4 6.8
2018-Jan-18 20:30N 43°33' W 002°09'4 6.7
2018-Jan-18 19:56N 43°33' W 002°03'3 6.5
2018-Jan-18 19:31N 43°32' W 001°60'3 6.8
2018-Jan-18 19:01N 43°32' W 001°55'3 6.7
2018-Jan-18 18:30N 43°32' W 001°50'3 6.8
2018-Jan-18 18:01N 43°32' W 001°46'3 6.7
2018-Jan-18 17:30N 43°32' W 001°41'3 6.4
2018-Jan-18 17:00N 43°32' W 001°37'3 5.9
2018-Jan-18 16:30N 43°32' W 001°32'2 3.4
2018-Jan-18 16:00N 43°32' W 001°30'0 0.0
2018-Jan-18 15:30N 43°32' W 001°30'0 0.0
2018-Jan-18 14:57N 43°32' W 001°30'0 0.0
2018-Jan-18 14:27N 43°32' W 001°30'0 0.0
2018-Jan-18 13:57N 43°32' W 001°30'0 0.0
2018-Jan-18 13:27N 43°32' W 001°30'0 0.0
2018-Jan-18 12:57N 43°32' W 001°30'0 0.0
2018-Jan-18 12:27N 43°32' W 001°30'0 0.0
2018-Jan-18 11:57N 43°32' W 001°30'0 0.0
2018-Jan-18 11:30N 43°32' W 001°30'0 0.0
2018-Jan-18 10:57N 43°32' W 001°30'0 0.0
2018-Jan-18 10:30N 43°32' W 001°30'0 0.0
2018-Jan-18 09:57N 43°32' W 001°30'0 0.0
2018-Jan-18 09:30N 43°32' W 001°30'0 0.0
2018-Jan-18 08:59N 43°32' W 001°30'0 0.0
2018-Jan-18 08:30N 43°32' W 001°30'0 0.0
2018-Jan-18 08:00N 43°32' W 001°30'0 0.0
2018-Jan-18 07:30N 43°32' W 001°30'0 0.0
2018-Jan-18 07:00N 43°32' W 001°30'0 0.0
2018-Jan-18 06:30N 43°32' W 001°30'0 0.0
2018-Jan-18 05:57N 43°32' W 001°30'0 0.0
2018-Jan-18 05:29N 43°32' W 001°30'0 0.0
2018-Jan-18 04:57N 43°32' W 001°30'0 0.0
2018-Jan-18 04:30N 43°32' W 001°30'0 0.0
2018-Jan-18 04:00N 43°32' W 001°30'0 0.0
2018-Jan-18 03:30N 43°32' W 001°30'0 0.0
2018-Jan-18 02:57N 43°32' W 001°30'0 0.0
2018-Jan-18 02:29N 43°32' W 001°30'0 0.0
2018-Jan-18 01:59N 43°32' W 001°30'0 0.0
2018-Jan-18 01:26N 43°32' W 001°30'0 0.0
2018-Jan-18 00:56N 43°32' W 001°30'0 0.0
2018-Jan-17 23:56N 43°32' W 001°30'  
2018-Jan-12 14:59N 49°25' E 001°01'0 0.0
2018-Jan-12 14:29N 49°25' E 001°01'0 0.0
2018-Jan-12 13:59N 49°25' E 001°01'0 0.0
2018-Jan-12 13:29N 49°25' E 001°01'0 0.0
2018-Jan-12 12:59N 49°25' E 001°01'0 0.0
2018-Jan-12 12:29N 49°25' E 001°01'0 0.0
2018-Jan-12 11:59N 49°25' E 001°01'0 0.0
2018-Jan-12 11:29N 49°25' E 001°01'0 0.0
2018-Jan-12 10:56N 49°25' E 001°01'0 0.0
2018-Jan-12 10:29N 49°25' E 001°01'0 0.0
2018-Jan-12 09:59N 49°25' E 001°01'0 0.0
2018-Jan-12 09:29N 49°25' E 001°01'0 0.0
2018-Jan-12 08:56N 49°25' E 001°01'0 0.0
2018-Jan-12 08:29N 49°25' E 001°01'0 0.0
2018-Jan-12 07:59N 49°25' E 001°01'0 0.0
2018-Jan-12 07:29N 49°25' E 001°01'0 0.0
2018-Jan-12 06:59N 49°25' E 001°01'0 0.0
2018-Jan-12 06:29N 49°25' E 001°01'0 0.0
2018-Jan-12 05:59N 49°25' E 001°01'0 0.0
2018-Jan-12 05:29N 49°25' E 001°01'0 0.0
2018-Jan-12 04:59N 49°25' E 001°01'0 0.0
2018-Jan-12 04:29N 49°25' E 001°01'0 0.0
2018-Jan-12 03:59N 49°25' E 001°01'0 0.0
2018-Jan-12 03:29N 49°25' E 001°01'0 0.0
2018-Jan-12 02:59N 49°25' E 001°01'0 0.0
2018-Jan-12 02:29N 49°25' E 001°01'0 0.0
2018-Jan-12 01:59N 49°25' E 001°01'0 0.0
2018-Jan-12 01:29N 49°25' E 001°01'0 0.0
2018-Jan-12 00:59N 49°25' E 001°01'0 0.0
2018-Jan-12 00:29N 49°25' E 001°01'0 0.0
2018-Jan-11 23:59N 49°25' E 001°01'0 0.0
2018-Jan-11 23:29N 49°25' E 001°01'0 0.0
2018-Jan-11 22:59N 49°25' E 001°01'0 0.0
2018-Jan-11 22:29N 49°25' E 001°01'0 0.0
2018-Jan-11 21:59N 49°25' E 001°01'0 0.0
2018-Jan-11 21:29N 49°25' E 001°01'0 0.0
2018-Jan-11 20:59N 49°25' E 001°01'0 0.0
2018-Jan-11 20:29N 49°25' E 001°01'0 0.0
2018-Jan-11 19:59N 49°25' E 001°01'0 0.0
2018-Jan-11 19:29N 49°25' E 001°01'0 0.0
2018-Jan-11 18:56N 49°25' E 001°01'0 0.0
2018-Jan-11 18:29N 49°25' E 001°01'0 0.0
2018-Jan-11 17:59N 49°25' E 001°01'0 0.0
2018-Jan-11 17:29N 49°25' E 001°01'0 0.0
2018-Jan-11 16:59N 49°25' E 001°01'0 0.0
2018-Jan-11 16:29N 49°25' E 001°01'0 0.0
2018-Jan-11 15:59N 49°25' E 001°01'0 0.0
2018-Jan-11 15:29N 49°25' E 001°01'0 0.0
2018-Jan-11 14:59N 49°25' E 001°01'0 0.0
2018-Jan-11 14:29N 49°25' E 001°01'0 0.0
2018-Jan-11 13:56N 49°25' E 001°01'0 0.0
2018-Jan-11 13:29N 49°25' E 001°01'0 0.0
2018-Jan-11 12:59N 49°25' E 001°01'0 0.0
2018-Jan-11 12:29N 49°25' E 001°01'0 0.0
2018-Jan-11 11:59N 49°25' E 001°01'0 0.0
2018-Jan-11 11:29N 49°25' E 001°01'0 0.0
2018-Jan-11 10:59N 49°25' E 001°01'0 0.0
2018-Jan-11 10:29N 49°25' E 001°01'0 0.0
2018-Jan-11 09:59N 49°25' E 001°01'0 0.0
2018-Jan-11 09:29N 49°25' E 001°01'0 0.0
2018-Jan-11 08:59N 49°25' E 001°01'0 0.0
2018-Jan-11 08:29N 49°25' E 001°01'0 0.0
2018-Jan-11 07:53N 49°25' E 001°01'0 0.0
2018-Jan-11 07:29N 49°25' E 001°01'0 0.0
2018-Jan-11 06:59N 49°25' E 001°01'0 0.0
2018-Jan-11 06:29N 49°25' E 001°01'0 0.0
2018-Jan-11 05:59N 49°25' E 001°01'0 0.0
2018-Jan-11 05:29N 49°25' E 001°01'0 0.0
2018-Jan-11 04:59N 49°25' E 001°01'0 0.0
2018-Jan-11 04:29N 49°25' E 001°01'0 0.0
2018-Jan-11 03:56N 49°25' E 001°01'0 0.0
2018-Jan-11 03:29N 49°25' E 001°01'  
Track history (hours):
 
Tides and Currents Weather Stations Pressure Air Temp Water Temp Dewpoint Dewpoint Depression Visibility Wind Speed Wind Dir Waves Ship Positions

Marley

Last reported at 2018-Jan-21 03:00 UTC. Time now 2018-Jan-21 03:06 UTC.
Position N 43°43' W 005°43'.

Length 91 m; draft 3.2 m.

Type: Cargo ship. MMSI: 205656000.

Date/timePositionNaut miles runAvg speedWind from/ knotsBaromVisibWave heightAir tempDewpointWater temp
2018-Jan-21 03:00N 43°43' W 005°43'1 1.0
2018-Jan-21 02:30N 43°43' W 005°43'1 1.1
2018-Jan-21 02:00N 43°43' W 005°44'1 1.3
2018-Jan-21 01:29N 43°43' W 005°45'1 1.3
2018-Jan-21 01:00N 43°44' W 005°46'1 1.3
2018-Jan-21 00:30N 43°44' W 005°47'6 1.2
2018-Jan-20 19:50N 43°45' W 005°54'1 1.5
2018-Jan-20 19:30N 43°45' W 005°55'1 1.4
2018-Jan-20 18:49N 43°45' W 005°56'2 0.5
2018-Jan-20 15:35N 43°44' W 005°58'1 4.0
2018-Jan-20 15:27N 43°44' W 005°57'2 4.7
2018-Jan-20 15:00N 43°45' W 005°54'2 4.5
2018-Jan-20 14:27N 43°45' W 005°51'2 4.5
2018-Jan-20 14:00N 43°45' W 005°48'2 4.1
2018-Jan-20 13:27N 43°45' W 005°45'2 3.6
2018-Jan-20 13:00N 43°45' W 005°43'1 1.5
2018-Jan-20 12:15N 43°45' W 005°45'0 1.4
2018-Jan-20 12:00N 43°45' W 005°45'1 1.4
2018-Jan-20 11:27N 43°45' W 005°46'1 1.4
2018-Jan-20 10:47N 43°45' W 005°47'0 1.3
2018-Jan-20 10:28N 43°45' W 005°48'1 1.3
2018-Jan-20 09:59N 43°45' W 005°49'1 1.4
2018-Jan-20 09:29N 43°45' W 005°50'1 1.3
2018-Jan-20 08:58N 43°46' W 005°51'1 1.3
2018-Jan-20 08:29N 43°46' W 005°51'0 0.9
2018-Jan-20 07:57N 43°45' W 005°52'2 3.7
2018-Jan-20 07:28N 43°44' W 005°51'1 1.5
2018-Jan-20 06:57N 43°44' W 005°52'1 1.5
2018-Jan-20 06:30N 43°44' W 005°53'1 1.7
2018-Jan-20 05:59N 43°44' W 005°54'1 1.6
2018-Jan-20 05:30N 43°44' W 005°55'1 1.4
2018-Jan-20 04:57N 43°44' W 005°56'1 1.3
2018-Jan-20 04:29N 43°45' W 005°57'1 0.9
2018-Jan-20 03:49N 43°45' W 005°58'2 5.5
2018-Jan-20 03:26N 43°44' W 005°55'3 5.7
2018-Jan-20 03:00N 43°43' W 005°52'0 0.3
2018-Jan-20 02:22N 43°44' W 005°52'5 0.9
2018-Jan-19 21:18N 43°43' W 005°59'1 2.5
2018-Jan-19 20:57N 43°42' W 005°59'0 0.2
2018-Jan-19 20:07N 43°42' W 005°59'1 2.5
2018-Jan-19 19:51N 43°42' W 005°58'1 1.0
2018-Jan-19 18:48N 43°43' W 005°58'2 7.6
2018-Jan-19 18:28N 43°43' W 005°55'4 7.9
2018-Jan-19 17:58N 43°44' W 005°50'6 8.0
2018-Jan-19 17:12N 43°45' W 005°41'2 7.7
2018-Jan-19 16:59N 43°45' W 005°39'5 7.7
2018-Jan-19 16:20N 43°44' W 005°32'22 7.5
2018-Jan-19 13:28N 43°42' W 005°02'58 7.6
2018-Jan-19 05:48N 43°35' W 003°42'4 7.6
2018-Jan-19 05:18N 43°35' W 003°37'2 7.7
2018-Jan-19 05:00N 43°35' W 003°34'4 7.7
2018-Jan-19 04:31N 43°35' W 003°29'4 7.6
2018-Jan-19 04:00N 43°35' W 003°23'3 7.2
2018-Jan-19 03:31N 43°35' W 003°18'4 7.3
2018-Jan-19 02:57N 43°34' W 003°13'4 7.3
2018-Jan-19 02:25N 43°34' W 003°07'3 7.3
2018-Jan-19 02:01N 43°34' W 003°03'4 7.6
2018-Jan-19 01:31N 43°34' W 002°58'4 7.6
2018-Jan-19 01:00N 43°34' W 002°53'4 7.2
2018-Jan-19 00:30N 43°34' W 002°48'4 7.2
2018-Jan-19 00:01N 43°34' W 002°43'4 7.1
2018-Jan-18 23:31N 43°33' W 002°38'3 7.0
2018-Jan-18 23:01N 43°33' W 002°33'4 7.3
2018-Jan-18 22:31N 43°33' W 002°28'4 7.4
2018-Jan-18 22:01N 43°33' W 002°23'4 7.1
2018-Jan-18 21:30N 43°33' W 002°18'3 7.1
2018-Jan-18 21:01N 43°33' W 002°13'4 6.8
2018-Jan-18 20:30N 43°33' W 002°09'4 6.7
2018-Jan-18 19:56N 43°33' W 002°03'3 6.5
2018-Jan-18 19:31N 43°32' W 001°60'3 6.8
2018-Jan-18 19:01N 43°32' W 001°55'3 6.7
2018-Jan-18 18:30N 43°32' W 001°50'3 6.8
2018-Jan-18 18:01N 43°32' W 001°46'3 6.7
2018-Jan-18 17:30N 43°32' W 001°41'3 6.4
2018-Jan-18 17:00N 43°32' W 001°37'3 5.9
2018-Jan-18 16:30N 43°32' W 001°32'2 3.4
2018-Jan-18 16:00N 43°32' W 001°30'0 0.0
2018-Jan-18 15:30N 43°32' W 001°30'0 0.0
2018-Jan-18 14:57N 43°32' W 001°30'0 0.0
2018-Jan-18 14:27N 43°32' W 001°30'0 0.0
2018-Jan-18 13:57N 43°32' W 001°30'0 0.0
2018-Jan-18 13:27N 43°32' W 001°30'0 0.0
2018-Jan-18 12:57N 43°32' W 001°30'0 0.0
2018-Jan-18 12:27N 43°32' W 001°30'0 0.0
2018-Jan-18 11:57N 43°32' W 001°30'0 0.0
2018-Jan-18 11:30N 43°32' W 001°30'0 0.0
2018-Jan-18 10:57N 43°32' W 001°30'0 0.0
2018-Jan-18 10:30N 43°32' W 001°30'0 0.0
2018-Jan-18 09:57N 43°32' W 001°30'0 0.0
2018-Jan-18 09:30N 43°32' W 001°30'0 0.0
2018-Jan-18 08:59N 43°32' W 001°30'0 0.0
2018-Jan-18 08:30N 43°32' W 001°30'0 0.0
2018-Jan-18 08:00N 43°32' W 001°30'0 0.0
2018-Jan-18 07:30N 43°32' W 001°30'0 0.0
2018-Jan-18 07:00N 43°32' W 001°30'0 0.0
2018-Jan-18 06:30N 43°32' W 001°30'0 0.0
2018-Jan-18 05:57N 43°32' W 001°30'0 0.0
2018-Jan-18 05:29N 43°32' W 001°30'0 0.0
2018-Jan-18 04:57N 43°32' W 001°30'0 0.0
2018-Jan-18 04:30N 43°32' W 001°30'0 0.0
2018-Jan-18 04:00N 43°32' W 001°30'0 0.0
2018-Jan-18 03:30N 43°32' W 001°30'0 0.0
2018-Jan-18 02:57N 43°32' W 001°30'0 0.0
2018-Jan-18 02:29N 43°32' W 001°30'0 0.0
2018-Jan-18 01:59N 43°32' W 001°30'0 0.0
2018-Jan-18 01:26N 43°32' W 001°30'0 0.0
2018-Jan-18 00:56N 43°32' W 001°30'0 0.0
2018-Jan-17 23:56N 43°32' W 001°30'  
2018-Jan-12 14:59N 49°25' E 001°01'0 0.0
2018-Jan-12 14:29N 49°25' E 001°01'0 0.0
2018-Jan-12 13:59N 49°25' E 001°01'0 0.0
2018-Jan-12 13:29N 49°25' E 001°01'0 0.0
2018-Jan-12 12:59N 49°25' E 001°01'0 0.0
2018-Jan-12 12:29N 49°25' E 001°01'0 0.0
2018-Jan-12 11:59N 49°25' E 001°01'0 0.0
2018-Jan-12 11:29N 49°25' E 001°01'0 0.0
2018-Jan-12 10:56N 49°25' E 001°01'0 0.0
2018-Jan-12 10:29N 49°25' E 001°01'0 0.0
2018-Jan-12 09:59N 49°25' E 001°01'0 0.0
2018-Jan-12 09:29N 49°25' E 001°01'0 0.0
2018-Jan-12 08:56N 49°25' E 001°01'0 0.0
2018-Jan-12 08:29N 49°25' E 001°01'0 0.0
2018-Jan-12 07:59N 49°25' E 001°01'0 0.0
2018-Jan-12 07:29N 49°25' E 001°01'0 0.0
2018-Jan-12 06:59N 49°25' E 001°01'0 0.0
2018-Jan-12 06:29N 49°25' E 001°01'0 0.0
2018-Jan-12 05:59N 49°25' E 001°01'0 0.0
2018-Jan-12 05:29N 49°25' E 001°01'0 0.0
2018-Jan-12 04:59N 49°25' E 001°01'0 0.0
2018-Jan-12 04:29N 49°25' E 001°01'0 0.0
2018-Jan-12 03:59N 49°25' E 001°01'0 0.0
2018-Jan-12 03:29N 49°25' E 001°01'0 0.0
2018-Jan-12 02:59N 49°25' E 001°01'0 0.0
2018-Jan-12 02:29N 49°25' E 001°01'0 0.0
2018-Jan-12 01:59N 49°25' E 001°01'0 0.0
2018-Jan-12 01:29N 49°25' E 001°01'0 0.0
2018-Jan-12 00:59N 49°25' E 001°01'0 0.0
2018-Jan-12 00:29N 49°25' E 001°01'0 0.0
2018-Jan-11 23:59N 49°25' E 001°01'0 0.0
2018-Jan-11 23:29N 49°25' E 001°01'0 0.0
2018-Jan-11 22:59N 49°25' E 001°01'0 0.0
2018-Jan-11 22:29N 49°25' E 001°01'0 0.0
2018-Jan-11 21:59N 49°25' E 001°01'0 0.0
2018-Jan-11 21:29N 49°25' E 001°01'0 0.0
2018-Jan-11 20:59N 49°25' E 001°01'0 0.0
2018-Jan-11 20:29N 49°25' E 001°01'0 0.0
2018-Jan-11 19:59N 49°25' E 001°01'0 0.0
2018-Jan-11 19:29N 49°25' E 001°01'0 0.0
2018-Jan-11 18:56N 49°25' E 001°01'0 0.0
2018-Jan-11 18:29N 49°25' E 001°01'0 0.0
2018-Jan-11 17:59N 49°25' E 001°01'0 0.0
2018-Jan-11 17:29N 49°25' E 001°01'0 0.0
2018-Jan-11 16:59N 49°25' E 001°01'0 0.0
2018-Jan-11 16:29N 49°25' E 001°01'0 0.0
2018-Jan-11 15:59N 49°25' E 001°01'0 0.0
2018-Jan-11 15:29N 49°25' E 001°01'0 0.0
2018-Jan-11 14:59N 49°25' E 001°01'0 0.0
2018-Jan-11 14:29N 49°25' E 001°01'0 0.0
2018-Jan-11 13:56N 49°25' E 001°01'0 0.0
2018-Jan-11 13:29N 49°25' E 001°01'0 0.0
2018-Jan-11 12:59N 49°25' E 001°01'0 0.0
2018-Jan-11 12:29N 49°25' E 001°01'0 0.0
2018-Jan-11 11:59N 49°25' E 001°01'0 0.0
2018-Jan-11 11:29N 49°25' E 001°01'0 0.0
2018-Jan-11 10:59N 49°25' E 001°01'0 0.0
2018-Jan-11 10:29N 49°25' E 001°01'0 0.0
2018-Jan-11 09:59N 49°25' E 001°01'0 0.0
2018-Jan-11 09:29N 49°25' E 001°01'0 0.0
2018-Jan-11 08:59N 49°25' E 001°01'0 0.0
2018-Jan-11 08:29N 49°25' E 001°01'0 0.0
2018-Jan-11 07:53N 49°25' E 001°01'0 0.0
2018-Jan-11 07:29N 49°25' E 001°01'0 0.0
2018-Jan-11 06:59N 49°25' E 001°01'0 0.0
2018-Jan-11 06:29N 49°25' E 001°01'0 0.0
2018-Jan-11 05:59N 49°25' E 001°01'0 0.0
2018-Jan-11 05:29N 49°25' E 001°01'0 0.0
2018-Jan-11 04:59N 49°25' E 001°01'0 0.0
2018-Jan-11 04:29N 49°25' E 001°01'0 0.0
2018-Jan-11 03:56N 49°25' E 001°01'0 0.0
2018-Jan-11 03:29N 49°25' E 001°01'  

Dump ship's entire track history